Millet, Canada
Current Conditions -  °F | °C
As of 4:01 PM on Thursday 20 Nov 2014 (Local Time) from CYEG Reporting Station
Overcast Overcast  
Wind Chill: 36°   Ceiling: 8500
Heat Index: 36°   Visibility: 15mi
Dew Point: 30°   Wind: 3mph
Humidity: 81%   Direction: 190°S
Pressure: 29.55"   Gusts: NA
Location:  53.08°N, 113.47°W
Report Text: CYEG 202301Z 19003KT 15SM SCT070 BKN085 OVC110 02/M01 A2955 RMK AC4AC3AC1 ACC EMBD VIRGA SW SLP040
Loading
Personal Weather Stations






























Interactive Weather Map New forecast layout! Learn more

10-Day Weather Forecast

Advertisements
Track Severe Weather on mobile